Time;durP1;ratioP1;P1;durP2;ratioP2;P2;SDS_P1;SDS_P2;PMS_P1;PMS_P2;Temp;Humidity;BMP_temperature;BMP_pressure;BME280_temperature;BME280_humidity;BME280_pressure;Samples;Min_cycle;Max_cycle;Signal;HPM_P1;HPM_P2
2021/12/05 00:22:29;;;;;;;;;;;;;;;20.66;37.65;99596.09;7275772;19;153524;-52
2021/12/05 00:25:00;;;;;;;;;;;;;;;20.65;38.07;99593.63;7281038;19;152752;-53
2021/12/05 00:27:35;;;;;;;;;;;;;;;20.64;37.59;99591.97;7280160;19;151689;-52
2021/12/05 00:30:28;;;;;;;;;;;;;;;20.64;37.98;99595.63;7287319;19;154078;-53
2021/12/05 01:15:01;;;;;;;;;;;;;;;20.45;40.08;99572.81;7284163;19;153334;-52
2021/12/05 01:17:35;;;;;;;;;;;;;;;20.42;40.11;99571.53;7279798;19;152865;-50
2021/12/05 01:20:05;;;;;;;;;;;;;;;20.35;40.27;99578.84;7278002;19;153943;-51
2021/12/05 01:22:35;;;;;;;;;;;;;;;20.30;39.91;99573.44;7275767;19;151940;-51
2021/12/05 01:27:48;;;;;;;;;;;;;;;20.25;39.66;99579.22;7276544;19;153843;-52
2021/12/05 01:38:08;;;;;;;;;;;;;;;20.18;39.78;99578.91;7293642;19;152090;-51
2021/12/05 01:51:28;;;;;;;;;;;;;;;20.03;39.89;99594.34;7288336;19;152094;-51
2021/12/05 02:38:53;;;;;;;;;;;;;;;19.34;40.96;99650.59;7283203;19;152696;-51
2021/12/05 02:41:23;;;;;;;;;;;;;;;19.27;40.69;99650.25;7285283;19;152368;-51
2021/12/05 02:46:22;;;;;;;;;;;;;;;19.28;41.00;99656.69;7282282;19;154983;-50
2021/12/05 02:48:50;;;;;;;;;;;;;;;19.24;40.95;99647.31;7291831;19;152095;-51
2021/12/05 02:51:19;;;;;;;;;;;;;;;19.19;41.26;99656.69;7283759;19;154465;-51
2021/12/05 02:53:51;;;;;;;;;;;;;;;19.19;41.04;99662.31;7282007;19;152120;-51
2021/12/05 02:56:19;;;;;;;;;;;;;;;19.16;41.22;99657.38;7284031;19;152276;-51
2021/12/05 03:01:21;;;;;;;;;;;;;;;19.12;41.45;99653.59;7283338;19;152000;-52
2021/12/05 03:03:52;;;;;;;;;;;;;;;19.12;41.46;99658.38;7284593;19;153147;-50
2021/12/05 03:06:23;;;;;;;;;;;;;;;19.08;41.47;99659.00;7281299;19;154015;-51
2021/12/05 03:08:55;;;;;;;;;;;;;;;19.04;41.20;99663.63;7290813;19;152137;-51
2021/12/05 03:11:24;;;;;;;;;;;;;;;19.03;41.48;99664.78;7283020;19;152182;-52
2021/12/05 03:13:51;;;;;;;;;;;;;;;19.01;41.36;99647.50;7283164;19;152085;-51
2021/12/05 03:16:19;;;;;;;;;;;;;;;19.00;41.56;99661.81;7283672;19;153390;-52
2021/12/05 03:18:47;;;;;;;;;;;;;;;18.99;41.31;99666.59;7281883;19;154246;-51
2021/12/05 03:21:14;;;;;;;;;;;;;;;18.95;41.27;99665.59;7283394;19;152378;-50
2021/12/05 03:23:44;;;;;;;;;;;;;;;18.93;41.64;99661.50;7279404;19;152917;-51
2021/12/05 03:26:15;;;;;;;;;;;;;;;18.92;41.66;99657.03;7283438;19;153934;-51
2021/12/05 03:28:44;;;;;;;;;;;;;;;18.89;41.57;99668.91;7283291;19;152209;-51
2021/12/05 03:31:12;;;;;;;;;;;;;;;18.85;41.69;99665.91;7289363;19;153395;-51
2021/12/05 03:33:39;;;;;;;;;;;;;;;18.87;41.46;99685.19;7283388;19;151833;-51
2021/12/05 03:36:07;;;;;;;;;;;;;;;18.84;41.85;99680.25;7283942;19;153449;-51
2021/12/05 03:38:35;;;;;;;;;;;;;;;18.86;42.17;99680.75;7282051;19;152815;-50
2021/12/05 03:41:02;;;;;;;;;;;;;;;18.86;41.67;99689.13;7281867;19;152259;-51
2021/12/05 03:43:29;;;;;;;;;;;;;;;18.85;41.71;99691.09;7283690;19;153389;-51
2021/12/05 03:45:57;;;;;;;;;;;;;;;18.83;42.02;99695.41;7282360;19;153408;-51
2021/12/05 03:48:28;;;;;;;;;;;;;;;18.79;42.08;99689.63;7280851;19;151821;-51
2021/12/05 03:50:57;;;;;;;;;;;;;;;18.80;41.71;99687.66;7283234;19;152682;-52
2021/12/05 03:53:24;;;;;;;;;;;;;;;18.79;42.04;99706.44;7290205;19;154007;-51
2021/12/05 03:55:54;;;;;;;;;;;;;;;18.77;42.22;99693.91;7280442;19;153752;-50
2021/12/05 03:58:21;;;;;;;;;;;;;;;18.75;42.32;99694.25;7280261;19;153995;-51
2021/12/05 04:00:49;;;;;;;;;;;;;;;18.74;42.16;99700.97;7283357;19;151862;-50
2021/12/05 04:03:18;;;;;;;;;;;;;;;18.72;42.32;99713.63;7285616;19;152896;-51
2021/12/05 04:05:46;;;;;;;;;;;;;;;18.70;42.15;99700.00;7283360;19;154012;-51
2021/12/05 04:08:14;;;;;;;;;;;;;;;18.68;42.14;99705.06;7285123;19;151752;-50
2021/12/05 04:10:42;;;;;;;;;;;;;;;18.65;42.19;99686.16;7284661;19;153226;-50
2021/12/05 04:13:10;;;;;;;;;;;;;;;18.63;42.15;99696.84;7284189;19;153353;-51
2021/12/05 04:15:37;;;;;;;;;;;;;;;18.61;42.24;99708.38;7288235;19;151658;-51
2021/12/05 04:18:05;;;;;;;;;;;;;;;18.58;42.43;99708.19;7283229;19;153165;-51
2021/12/05 04:20:31;;;;;;;;;;;;;;;18.56;42.64;99707.69;7283673;19;152361;-50
2021/12/05 04:22:58;;;;;;;;;;;;;;;18.52;42.55;99713.09;7283143;19;153382;-51
2021/12/05 04:25:26;;;;;;;;;;;;;;;18.51;42.67;99716.19;7279630;19;153387;-51
2021/12/05 04:27:54;;;;;;;;;;;;;;;18.49;42.57;99710.91;7281414;19;152185;-51
2021/12/05 04:30:22;;;;;;;;;;;;;;;18.48;42.69;99708.47;7283516;19;153886;-50
2021/12/05 04:32:49;;;;;;;;;;;;;;;18.47;42.59;99716.03;7282876;19;153905;-51
2021/12/05 04:35:16;;;;;;;;;;;;;;;18.44;42.48;99719.47;7280238;19;151958;-51
2021/12/05 04:37:43;;;;;;;;;;;;;;;18.42;42.81;99726.53;7288089;19;151918;-51
2021/12/05 04:40:11;;;;;;;;;;;;;;;18.42;42.68;99726.53;7280726;19;152354;-51
2021/12/05 04:42:38;;;;;;;;;;;;;;;18.38;42.69;99731.13;7283844;19;153651;-51
2021/12/05 04:45:06;;;;;;;;;;;;;;;18.36;42.73;99742.63;7281247;19;153678;-51
2021/12/05 04:47:33;;;;;;;;;;;;;;;18.35;43.01;99734.59;7279955;19;151855;-51
2021/12/05 04:50:00;;;;;;;;;;;;;;;18.31;43.08;99739.97;7282681;19;153492;-50
2021/12/05 04:52:27;;;;;;;;;;;;;;;18.29;42.94;99739.50;7281717;19;154291;-51
2021/12/05 04:54:54;;;;;;;;;;;;;;;18.28;43.09;99746.22;7280587;19;152136;-51
2021/12/05 04:57:21;;;;;;;;;;;;;;;18.29;42.85;99749.84;7280380;19;153533;-51
2021/12/05 04:59:50;;;;;;;;;;;;;;;18.26;43.01;99742.13;7287381;19;153258;-51
2021/12/05 05:02:18;;;;;;;;;;;;;;;18.26;43.29;99747.72;7280549;19;153484;-51
2021/12/05 05:04:48;;;;;;;;;;;;;;;18.22;43.38;99751.13;7277351;19;153887;-51
2021/12/05 05:07:21;;;;;;;;;;;;;;;18.22;43.09;99756.72;7279936;19;152129;-50
2021/12/05 05:09:49;;;;;;;;;;;;;;;18.20;43.28;99763.78;7286729;19;152741;-50
2021/12/05 05:12:16;;;;;;;;;;;;;;;18.18;43.22;99764.09;7285256;19;154093;-50
2021/12/05 05:14:43;;;;;;;;;;;;;;;18.16;43.53;99766.41;7284225;19;152176;-51
2021/12/05 05:17:10;;;;;;;;;;;;;;;18.16;43.42;99768.38;7283697;19;152647;-51
2021/12/05 05:19:41;;;;;;;;;;;;;;;18.13;43.40;99769.81;7291498;19;153578;-50
2021/12/05 05:22:23;;;;;;;;;;;;;;;18.12;43.61;99768.19;7284224;19;153722;-51
2021/12/05 05:49:54;;;;;;;;;;;;;;;17.97;44.07;99790.97;7285910;19;152845;-51
2021/12/05 05:52:21;;;;;;;;;;;;;;;17.99;44.15;99802.63;7281273;19;153927;-51
2021/12/05 05:54:49;;;;;;;;;;;;;;;17.98;44.18;99809.38;7286764;19;151940;-51
2021/12/05 05:57:27;;;;;;;;;;;;;;;17.97;44.19;99806.91;7288119;19;152971;-50
2021/12/05 06:00:02;;;;;;;;;;;;;;;17.96;44.29;99819.22;7283091;19;153277;-50
2021/12/05 06:04:59;;;;;;;;;;;;;;;17.95;44.54;99818.38;7287432;19;153490;-51
2021/12/05 06:07:26;;;;;;;;;;;;;;;17.93;44.27;99829.06;7282840;19;152335;-51
2021/12/05 06:09:53;;;;;;;;;;;;;;;17.94;44.56;99827.09;7283813;19;152753;-51
2021/12/05 06:12:20;;;;;;;;;;;;;;;17.99;44.85;99838.16;7282672;19;153917;-51
2021/12/05 06:14:47;;;;;;;;;;;;;;;18.03;44.87;99836.38;7284362;19;152369;-51
2021/12/05 06:17:17;;;;;;;;;;;;;;;18.07;45.03;99841.00;7285057;19;153145;-51
2021/12/05 06:19:44;;;;;;;;;;;;;;;18.11;45.26;99842.00;7279580;19;153140;-51
2021/12/05 06:22:11;;;;;;;;;;;;;;;18.16;45.15;99852.25;7283142;19;151848;-51
2021/12/05 06:24:38;;;;;;;;;;;;;;;18.20;44.99;99848.50;7284427;19;153287;-50
2021/12/05 06:27:05;;;;;;;;;;;;;;;18.26;45.29;99853.94;7288552;19;152627;-51
2021/12/05 06:29:38;;;;;;;;;;;;;;;18.32;45.38;99861.03;7285403;19;152602;-52
2021/12/05 06:47:06;;;;;;;;;;;;;;;18.85;45.07;99883.41;7280594;19;153865;-50
2021/12/05 06:49:32;;;;;;;;;;;;;;;18.94;44.96;99887.06;7291931;19;152052;-51
2021/12/05 06:51:59;;;;;;;;;;;;;;;18.97;44.75;99892.00;7285332;19;153388;-51
2021/12/05 06:54:26;;;;;;;;;;;;;;;19.05;44.67;99886.44;7286988;19;152553;-50
2021/12/05 06:56:53;;;;;;;;;;;;;;;19.10;44.45;99886.28;7282679;19;152631;-51
2021/12/05 06:59:20;;;;;;;;;;;;;;;19.19;44.78;99896.69;7283166;19;154004;-51
2021/12/05 07:01:47;;;;;;;;;;;;;;;19.25;44.45;99901.00;7283169;19;152316;-51
2021/12/05 07:04:39;;;;;;;;;;;;;;;19.30;44.85;99903.66;7281650;19;152764;-51
2021/12/05 07:07:02;;;;;;;;;;;;;;;19.39;45.06;99918.50;7279970;19;153305;-51
2021/12/05 07:09:29;;;;;;;;;;;;;;;19.44;44.60;99921.19;7284822;19;151933;-51
2021/12/05 07:21:55;;;;;;;;;;;;;;;19.74;44.02;99925.84;7280297;19;152605;-51
2021/12/05 07:42:06;;;;;;;;;;;;;;;20.18;43.66;99977.13;7282281;19;152410;-51
2021/12/05 07:44:33;;;;;;;;;;;;;;;20.23;43.42;99975.00;7282345;19;153095;-51
2021/12/05 07:47:01;;;;;;;;;;;;;;;20.27;43.54;99976.00;7281203;19;153340;-51
2021/12/05 07:49:28;;;;;;;;;;;;;;;20.34;43.55;99984.78;7282843;19;152239;-50
2021/12/05 07:51:55;;;;;;;;;;;;;;;20.37;43.28;99994.50;7280861;19;152689;-51
2021/12/05 08:16:51;;;;;;;;;;;;;;;20.80;42.62;100022.53;7288649;19;151817;-51
2021/12/05 08:19:21;;;;;;;;;;;;;;;20.83;42.66;100030.28;7281849;19;152297;-51
2021/12/05 08:21:55;;;;;;;;;;;;;;;20.85;43.02;100040.00;7282272;19;151667;-51
2021/12/05 08:24:26;;;;;;;;;;;;;;;20.91;42.62;100045.47;7283082;19;151912;-51
2021/12/05 08:26:54;;;;;;;;;;;;;;;20.95;42.90;100049.25;7282276;19;152550;-51
2021/12/05 08:42:41;;;;;;;;;;;;;;;21.15;42.96;100071.88;7287287;19;151787;-55
2021/12/05 09:22:27;;;;;;;;;;;;;;;21.66;42.80;100155.25;7288418;19;151911;-51
2021/12/05 09:38:38;;;;;;;;;;;;;;;21.81;42.06;100172.69;7288153;19;153444;-51
2021/12/05 10:17:28;;;;;;;;;;;;;;;21.75;38.51;100264.88;7282846;19;152655;-51
2021/12/05 10:38:23;;;;;;;;;;;;;;;21.77;38.42;100285.03;7287536;19;151797;-51
2021/12/05 10:41:06;;;;;;;;;;;;;;;21.74;38.13;100292.16;7285807;19;153800;-51
2021/12/05 10:43:33;;;;;;;;;;;;;;;21.75;38.34;100298.63;7287668;19;152401;-51
2021/12/05 10:46:07;;;;;;;;;;;;;;;21.73;38.22;100298.94;7285587;19;153365;-51
2021/12/05 10:48:35;;;;;;;;;;;;;;;21.72;38.00;100297.28;7286229;19;153878;-52
2021/12/05 10:51:05;;;;;;;;;;;;;;;21.69;38.47;100302.75;7286275;19;151816;-51
2021/12/05 10:53:35;;;;;;;;;;;;;;;21.68;38.05;100301.91;7284479;19;153480;-51
2021/12/05 10:56:14;;;;;;;;;;;;;;;21.66;38.13;100304.25;7280704;19;153381;-51
2021/12/05 10:58:59;;;;;;;;;;;;;;;21.64;37.89;100300.09;7291544;19;152478;-51
2021/12/05 11:01:34;;;;;;;;;;;;;;;21.61;38.21;100306.41;7283937;19;153334;-52
2021/12/05 11:04:01;;;;;;;;;;;;;;;21.56;38.45;100304.59;7263658;19;153061;-51
2021/12/05 11:06:31;;;;;;;;;;;;;;;21.55;38.00;100325.41;7283773;19;154153;-51
2021/12/05 11:09:11;;;;;;;;;;;;;;;21.53;37.99;100318.47;7284560;19;152236;-51
2021/12/05 11:11:38;;;;;;;;;;;;;;;21.52;38.65;100314.84;7283224;19;151924;-55
2021/12/05 11:14:09;;;;;;;;;;;;;;;21.57;38.10;100322.28;7285133;19;152871;-51
2021/12/05 11:16:48;;;;;;;;;;;;;;;21.54;38.52;100326.56;7284499;19;153259;-52
2021/12/05 11:19:18;;;;;;;;;;;;;;;21.55;38.52;100316.97;7285592;19;151468;-52
2021/12/05 11:21:47;;;;;;;;;;;;;;;21.56;38.75;100329.88;7291424;19;152630;-52
2021/12/05 11:24:16;;;;;;;;;;;;;;;21.58;38.40;100327.56;7283957;19;151836;-51
2021/12/05 11:26:44;;;;;;;;;;;;;;;21.59;38.33;100328.38;7283704;19;153803;-52
2021/12/05 11:29:11;;;;;;;;;;;;;;;21.60;38.41;100336.50;7282797;19;152461;-52
2021/12/05 11:31:39;;;;;;;;;;;;;;;21.60;38.65;100330.88;7285578;19;151833;-52
2021/12/05 11:34:06;;;;;;;;;;;;;;;21.60;38.72;100338.47;7285720;19;153272;-52
2021/12/05 11:36:35;;;;;;;;;;;;;;;21.56;38.67;100341.13;7261169;19;153978;-51
2021/12/05 11:39:05;;;;;;;;;;;;;;;21.57;38.17;100339.16;7285119;19;152053;-52
2021/12/05 11:41:37;;;;;;;;;;;;;;;21.55;38.38;100341.44;7284789;19;152758;-52
2021/12/05 11:44:04;;;;;;;;;;;;;;;21.54;38.32;100357.47;7289323;19;151838;-52
2021/12/05 11:46:33;;;;;;;;;;;;;;;21.54;38.31;100354.66;7283110;19;154316;-51
2021/12/05 11:49:02;;;;;;;;;;;;;;;21.52;38.04;100353.34;7283442;19;154378;-51
2021/12/05 11:51:35;;;;;;;;;;;;;;;21.57;38.07;100350.38;7285290;19;151875;-51
2021/12/05 11:54:14;;;;;;;;;;;;;;;21.60;38.37;100358.97;7285554;19;151729;-51
2021/12/05 11:56:50;;;;;;;;;;;;;;;21.58;38.31;100354.84;7281523;19;154536;-52
2021/12/05 11:59:23;;;;;;;;;;;;;;;21.54;38.48;100363.09;7280899;19;153543;-52
2021/12/05 12:01:59;;;;;;;;;;;;;;;21.52;38.03;100373.03;7284853;19;153485;-52
2021/12/05 12:04:39;;;;;;;;;;;;;;;21.62;39.96;100370.72;7287973;19;153893;-51
2021/12/05 12:07:17;;;;;;;;;;;;;;;21.57;40.08;100370.06;7262230;19;153996;-51
2021/12/05 12:09:45;;;;;;;;;;;;;;;21.49;39.00;100371.69;7281427;19;154144;-52
2021/12/05 12:12:13;;;;;;;;;;;;;;;21.48;39.40;100372.03;7282574;19;152042;-51
2021/12/05 12:14:40;;;;;;;;;;;;;;;21.45;39.64;100373.50;7283947;19;153359;-51
2021/12/05 12:17:13;;;;;;;;;;;;;;;21.42;39.14;100370.53;7278929;19;154077;-52
2021/12/05 12:19:40;;;;;;;;;;;;;;;21.36;39.45;100383.91;7284636;19;151821;-51
2021/12/05 12:22:08;;;;;;;;;;;;;;;21.35;39.41;100387.88;7282445;19;153815;-51
2021/12/05 12:24:35;;;;;;;;;;;;;;;21.31;39.41;100386.88;7282817;19;153203;-51
2021/12/05 12:27:03;;;;;;;;;;;;;;;21.29;39.36;100397.63;7291179;19;152090;-51
2021/12/05 12:29:30;;;;;;;;;;;;;;;21.23;39.30;100399.75;7280494;19;154499;-52
2021/12/05 12:32:16;;;;;;;;;;;;;;;21.21;39.05;100390.00;7284016;19;152006;-51
2021/12/05 12:34:44;;;;;;;;;;;;;;;21.16;39.01;100392.97;7282172;19;152661;-51
2021/12/05 12:37:11;;;;;;;;;;;;;;;21.11;39.31;100381.84;7280549;19;153111;-51
2021/12/05 12:39:44;;;;;;;;;;;;;;;21.07;39.53;100384.50;7284032;19;151599;-51
2021/12/05 12:42:15;;;;;;;;;;;;;;;21.06;39.40;100391.25;7283838;19;152792;-51
2021/12/05 12:44:48;;;;;;;;;;;;;;;21.06;39.43;100398.84;7282601;19;153288;-51
2021/12/05 12:47:15;;;;;;;;;;;;;;;21.07;39.56;100392.09;7283725;19;151916;-51
2021/12/05 12:49:42;;;;;;;;;;;;;;;21.07;39.31;100406.97;7290374;19;153385;-51
2021/12/05 12:52:10;;;;;;;;;;;;;;;21.08;39.08;100411.41;7283150;19;152009;-51
2021/12/05 12:54:42;;;;;;;;;;;;;;;21.11;39.44;100404.31;7283206;19;152934;-52
2021/12/05 12:57:11;;;;;;;;;;;;;;;21.12;39.46;100408.78;7279426;19;153929;-51
2021/12/05 12:59:42;;;;;;;;;;;;;;;21.15;39.19;100414.63;7283129;19;152131;-52
2021/12/05 13:10:05;;;;;;;;;;;;;;;21.19;39.24;100417.59;7282362;19;153202;-51
2021/12/05 13:12:44;;;;;;;;;;;;;;;21.17;39.32;100417.06;7287404;19;152301;-51
2021/12/05 13:15:16;;;;;;;;;;;;;;;21.17;38.92;100429.16;7279698;19;152579;-52
2021/12/05 13:17:54;;;;;;;;;;;;;;;21.18;39.11;100429.97;7277081;19;152717;-49
2021/12/05 13:20:23;;;;;;;;;;;;;;;21.17;38.81;100440.38;7281482;19;151997;-51
2021/12/05 13:22:53;;;;;;;;;;;;;;;21.16;39.21;100447.19;7282842;19;152507;-51
2021/12/05 13:25:24;;;;;;;;;;;;;;;21.15;38.92;100448.31;7280303;19;153942;-51
2021/12/05 13:27:52;;;;;;;;;;;;;;;21.14;39.21;100448.63;7283806;19;151979;-51
2021/12/05 13:30:22;;;;;;;;;;;;;;;21.13;39.14;100439.38;7288470;19;153507;-51
2021/12/05 13:32:49;;;;;;;;;;;;;;;21.12;38.95;100453.75;7287298;19;154476;-51
2021/12/05 13:35:23;;;;;;;;;;;;;;;21.08;38.79;100461.97;7296368;19;151861;-50
2021/12/05 13:37:51;;;;;;;;;;;;;;;21.07;38.73;100471.56;7288054;19;152557;-50
2021/12/05 13:40:21;;;;;;;;;;;;;;;21.04;38.75;100469.38;7288369;19;151646;-50
2021/12/05 13:42:51;;;;;;;;;;;;;;;21.03;38.92;100473.34;7289878;19;153274;-50
2021/12/05 13:45:18;;;;;;;;;;;;;;;21.02;39.06;100477.31;7288208;19;154040;-51
2021/12/05 13:47:53;;;;;;;;;;;;;;;21.01;39.20;100472.03;7289700;19;151926;-51
2021/12/05 13:50:45;;;;;;;;;;;;;;;20.95;39.16;100482.56;7288814;19;151841;-51
2021/12/05 13:53:12;;;;;;;;;;;;;;;20.95;39.05;100481.72;7286160;19;152262;-51
2021/12/05 13:56:02;;;;;;;;;;;;;;;20.91;38.87;100487.16;7296591;19;152194;-50
2021/12/05 13:58:35;;;;;;;;;;;;;;;20.90;39.18;100490.28;7287423;19;153241;-51
2021/12/05 14:01:04;;;;;;;;;;;;;;;20.86;39.19;100493.75;7288073;19;152122;-50
2021/12/05 14:03:38;;;;;;;;;;;;;;;20.84;39.00;100486.81;7289201;19;153418;-50
2021/12/05 14:06:31;;;;;;;;;;;;;;;20.79;39.30;100496.19;7286127;19;153817;-51
2021/12/05 14:09:16;;;;;;;;;;;;;;;20.77;38.96;100509.72;7288904;19;152358;-51
2021/12/05 14:11:47;;;;;;;;;;;;;;;20.74;39.26;100517.97;7287278;19;152789;-51
2021/12/05 14:14:15;;;;;;;;;;;;;;;20.71;39.42;100516.63;7286361;19;152357;-50
2021/12/05 14:16:44;;;;;;;;;;;;;;;20.68;39.07;100516.41;7286022;19;152728;-50
2021/12/05 14:21:50;;;;;;;;;;;;;;;20.61;39.33;100530.91;7288447;19;151982;-50
2021/12/05 14:24:19;;;;;;;;;;;;;;;20.57;39.66;100535.53;7287530;19;152435;-51
2021/12/05 14:26:48;;;;;;;;;;;;;;;20.55;39.55;100540.59;7286844;19;153903;-51
2021/12/05 14:29:17;;;;;;;;;;;;;;;20.51;39.72;100547.19;7286528;19;152249;-51
2021/12/05 14:32:06;;;;;;;;;;;;;;;20.47;39.64;100547.00;7288210;19;152667;-50
2021/12/05 14:34:33;;;;;;;;;;;;;;;20.44;39.61;100560.84;7286171;19;153997;-50
2021/12/05 14:37:02;;;;;;;;;;;;;;;20.39;39.64;100564.59;7287448;19;151632;-50
2021/12/05 14:39:31;;;;;;;;;;;;;;;20.41;40.15;100567.88;7284106;19;152644;-50
2021/12/05 14:41:59;;;;;;;;;;;;;;;20.35;39.71;100569.97;7295102;19;153389;-50
2021/12/05 14:44:27;;;;;;;;;;;;;;;20.33;39.98;100565.84;7283914;19;152500;-50
2021/12/05 14:46:54;;;;;;;;;;;;;;;20.29;40.32;100570.41;7285490;19;152497;-50
2021/12/05 14:49:23;;;;;;;;;;;;;;;20.26;39.97;100582.25;7287116;19;151872;-50
2021/12/05 14:51:50;;;;;;;;;;;;;;;20.23;39.97;100589.31;7287093;19;153256;-50
2021/12/05 14:54:18;;;;;;;;;;;;;;;20.21;39.90;100585.19;7287084;19;153107;-50
2021/12/05 14:56:45;;;;;;;;;;;;;;;20.16;40.51;100596.50;7284919;19;152219;-50
2021/12/05 14:59:19;;;;;;;;;;;;;;;20.13;40.38;100608.34;7284400;19;152877;-51
2021/12/05 15:01:50;;;;;;;;;;;;;;;20.10;40.55;100609.81;7286321;19;154065;-50
2021/12/05 15:04:18;;;;;;;;;;;;;;;20.07;40.22;100618.03;7296117;19;151890;-50
2021/12/05 15:06:47;;;;;;;;;;;;;;;20.03;40.50;100617.84;7284294;19;152710;-50
2021/12/05 15:09:17;;;;;;;;;;;;;;;20.03;40.48;100628.22;7289102;19;152256;-50
2021/12/05 15:11:47;;;;;;;;;;;;;;;19.99;40.63;100620.41;7287398;19;152296;-50
2021/12/05 15:14:14;;;;;;;;;;;;;;;19.97;40.46;100630.28;7285672;19;154456;-50
2021/12/05 15:16:44;;;;;;;;;;;;;;;19.94;40.65;100633.72;7287373;19;151832;-50
2021/12/05 15:19:18;;;;;;;;;;;;;;;19.91;40.70;100639.94;7284979;19;152642;-50
2021/12/05 15:21:58;;;;;;;;;;;;;;;19.88;40.49;100644.22;7282478;19;151864;-50
2021/12/05 15:24:43;;;;;;;;;;;;;;;19.86;40.41;100642.84;7286371;19;153344;-50
2021/12/05 15:27:13;;;;;;;;;;;;;;;19.85;40.58;100658.03;7293476;19;153484;-50
2021/12/05 15:29:44;;;;;;;;;;;;;;;19.79;40.77;100668.50;7286663;19;151867;-50
2021/12/05 15:32:18;;;;;;;;;;;;;;;19.79;41.08;100667.66;7287081;19;151851;-50
2021/12/05 15:34:54;;;;;;;;;;;;;;;19.79;41.08;100668.50;7283913;19;152765;-50
2021/12/05 15:37:25;;;;;;;;;;;;;;;19.74;40.94;100674.22;7286764;19;152050;-50
2021/12/05 15:39:53;;;;;;;;;;;;;;;19.72;41.06;100679.28;7284221;19;153451;-50
2021/12/05 15:42:24;;;;;;;;;;;;;;;19.72;41.23;100679.28;7282928;19;154204;-50
2021/12/05 15:44:56;;;;;;;;;;;;;;;19.69;41.16;100691.13;7283209;19;152733;-50
2021/12/05 15:47:25;;;;;;;;;;;;;;;19.68;41.00;100691.41;7285637;19;153438;-50
2021/12/05 15:50:04;;;;;;;;;;;;;;;19.66;40.90;100696.50;7292753;19;153609;-50
2021/12/05 15:52:47;;;;;;;;;;;;;;;19.61;41.33;100699.41;7284999;19;153499;-50
2021/12/05 15:55:17;;;;;;;;;;;;;;;19.59;41.29;100691.31;7285195;19;153943;-51
2021/12/05 15:57:46;;;;;;;;;;;;;;;19.58;41.12;100702.84;7283742;19;152377;-50
2021/12/05 16:00:27;;;;;;;;;;;;;;;19.56;41.40;100707.91;7283140;19;153359;-50
2021/12/05 16:03:13;;;;;;;;;;;;;;;19.54;41.36;100716.59;7285017;19;152089;-51
2021/12/05 16:05:41;;;;;;;;;;;;;;;19.52;41.10;100719.75;7286129;19;152034;-50
2021/12/05 16:08:07;;;;;;;;;;;;;;;19.50;41.07;100726.78;7282594;19;153473;-50
2021/12/05 16:10:36;;;;;;;;;;;;;;;19.45;41.08;100724.88;7291652;19;153888;-50
2021/12/05 16:13:06;;;;;;;;;;;;;;;19.44;41.23;100731.63;7285028;19;152156;-50
2021/12/05 16:15:32;;;;;;;;;;;;;;;19.42;41.22;100742.28;7283327;19;154282;-50
2021/12/05 16:18:00;;;;;;;;;;;;;;;19.36;41.32;100751.06;7285260;19;152351;-51
2021/12/05 16:20:40;;;;;;;;;;;;;;;19.38;41.42;100757.22;7284563;19;152027;-51
2021/12/05 16:23:16;;;;;;;;;;;;;;;19.34;41.68;100758.97;7284769;19;154131;-51
2021/12/05 16:25:48;;;;;;;;;;;;;;;19.32;41.21;100756.47;7285414;19;151544;-50
2021/12/05 16:28:21;;;;;;;;;;;;;;;19.30;41.63;100755.94;7285718;19;152506;-50
2021/12/05 16:30:48;;;;;;;;;;;;;;;19.29;41.41;100759.06;7282279;19;153588;-50
2021/12/05 16:33:18;;;;;;;;;;;;;;;19.25;41.56;100772.00;7293242;19;151904;-51
2021/12/05 16:35:48;;;;;;;;;;;;;;;19.24;41.77;100771.16;7281589;19;153089;-50
2021/12/05 16:38:48;;;;;;;;;;;;;;;19.23;41.78;100779.88;7285692;19;151532;-50
2021/12/05 16:41:14;;;;;;;;;;;;;;;19.24;41.53;100778.72;7281877;19;153250;-50
2021/12/05 16:43:49;;;;;;;;;;;;;;;19.28;41.75;100788.19;7283391;19;152582;-50
2021/12/05 16:46:19;;;;;;;;;;;;;;;19.33;41.40;100796.53;7285198;19;151738;-51
2021/12/05 16:48:46;;;;;;;;;;;;;;;19.39;41.72;100801.75;7284633;19;152787;-49
2021/12/05 16:51:14;;;;;;;;;;;;;;;19.45;41.60;100803.34;7282113;19;153224;-49
2021/12/05 16:53:46;;;;;;;;;;;;;;;19.52;41.46;100802.97;7284124;19;151547;-50
2021/12/05 16:56:14;;;;;;;;;;;;;;;19.59;41.76;100805.38;7290229;19;152641;-50
2021/12/05 16:58:44;;;;;;;;;;;;;;;19.67;41.94;100811.09;7282742;19;151958;-50
2021/12/05 17:01:14;;;;;;;;;;;;;;;19.73;41.68;100809.06;7283479;19;152686;-51
2021/12/05 17:03:43;;;;;;;;;;;;;;;19.76;41.54;100817.69;7287559;19;153924;-50
2021/12/05 17:06:11;;;;;;;;;;;;;;;19.81;41.44;100816.75;7290383;19;151869;-50
2021/12/05 17:08:45;;;;;;;;;;;;;;;19.85;41.09;100821.44;7290073;19;152674;-51
2021/12/05 17:11:16;;;;;;;;;;;;;;;19.90;41.34;100826.97;7288162;19;154014;-51
2021/12/05 17:13:48;;;;;;;;;;;;;;;19.95;41.26;100826.03;7290119;19;152150;-50
2021/12/05 17:16:16;;;;;;;;;;;;;;;20.02;41.06;100836.88;7290227;19;153073;-50
2021/12/05 17:18:58;;;;;;;;;;;;;;;20.07;41.03;100839.59;7295115;19;153791;-50
2021/12/05 17:21:27;;;;;;;;;;;;;;;20.13;41.05;100849.56;7290107;19;152910;-51
2021/12/05 17:24:00;;;;;;;;;;;;;;;20.18;40.90;100855.09;7286582;19;152690;-51
2021/12/05 17:26:37;;;;;;;;;;;;;;;20.22;40.62;100856.97;7289249;19;151635;-50
2021/12/05 17:29:06;;;;;;;;;;;;;;;20.26;41.03;100863.63;7289143;19;153355;-50
2021/12/05 17:31:38;;;;;;;;;;;;;;;20.32;40.73;100873.66;7265206;19;153693;-50
2021/12/05 17:34:08;;;;;;;;;;;;;;;20.38;40.35;100882.81;7277214;19;153423;-51
2021/12/05 17:36:44;;;;;;;;;;;;;;;20.44;40.25;100886.38;7288722;19;153341;-51
2021/12/05 17:39:16;;;;;;;;;;;;;;;20.48;40.59;100898.63;7286345;19;154228;-51
2021/12/05 17:41:44;;;;;;;;;;;;;;;20.52;40.28;100897.72;7297632;19;151924;-51
2021/12/05 17:44:12;;;;;;;;;;;;;;;20.56;40.46;100900.72;7288364;19;153521;-50
2021/12/05 17:46:39;;;;;;;;;;;;;;;20.59;40.03;100903.72;7288028;19;152462;-51
2021/12/05 17:49:07;;;;;;;;;;;;;;;20.65;40.31;100910.09;7289565;19;152584;-50
2021/12/05 17:51:37;;;;;;;;;;;;;;;20.69;40.20;100908.31;7287566;19;153943;-52
2021/12/05 17:54:06;;;;;;;;;;;;;;;20.73;40.23;100920.59;7288918;19;152130;-52
2021/12/05 17:56:39;;;;;;;;;;;;;;;20.75;39.82;100919.16;7286467;19;153338;-52
2021/12/05 17:59:13;;;;;;;;;;;;;;;20.80;40.20;100923.84;7285690;19;152609;-52
2021/12/05 18:04:29;;;;;;;;;;;;;;;20.86;40.04;100931.00;7294126;19;153730;-52
2021/12/05 18:06:57;;;;;;;;;;;;;;;20.90;40.06;100929.22;7287434;19;152288;-51
2021/12/05 18:09:25;;;;;;;;;;;;;;;20.94;39.91;100941.50;7285222;19;153101;-51
2021/12/05 18:11:52;;;;;;;;;;;;;;;20.97;39.92;100934.44;7286655;19;153501;-52
2021/12/05 18:14:19;;;;;;;;;;;;;;;21.00;39.63;100931.00;7284153;19;152381;-52
2021/12/05 18:16:46;;;;;;;;;;;;;;;21.03;39.78;100933.22;7286285;19;153426;-51
2021/12/05 18:19:15;;;;;;;;;;;;;;;21.06;39.49;100932.56;7284450;19;154046;-52
2021/12/05 18:21:45;;;;;;;;;;;;;;;21.09;39.67;100929.97;7286031;19;151893;-51
2021/12/05 18:24:13;;;;;;;;;;;;;;;21.11;39.67;100938.94;7291074;19;153785;-52
2021/12/05 18:26:41;;;;;;;;;;;;;;;21.14;39.23;100949.56;7286134;19;152518;-52
2021/12/05 18:29:09;;;;;;;;;;;;;;;21.18;39.48;100952.56;7288119;19;152545;-50
2021/12/05 18:31:38;;;;;;;;;;;;;;;21.19;39.14;100951.44;7285680;19;153236;-51
2021/12/05 18:34:07;;;;;;;;;;;;;;;21.22;39.25;100962.03;7280096;19;153321;-49
2021/12/05 18:36:37;;;;;;;;;;;;;;;21.25;39.14;100983.91;7281101;19;153603;-50
2021/12/05 18:39:08;;;;;;;;;;;;;;;21.28;39.05;100986.94;7281181;19;153812;-49
2021/12/05 18:41:36;;;;;;;;;;;;;;;21.31;39.03;100993.88;7282317;19;151844;-50
2021/12/05 18:44:06;;;;;;;;;;;;;;;21.34;39.10;100984.00;7277301;19;154298;-49
2021/12/05 18:46:33;;;;;;;;;;;;;;;21.35;39.22;100982.88;7289856;19;154259;-50